createdAt,value
2019-06-23T00:01:10.084Z,38.48
2019-06-23T00:03:45.254Z,36.65
2019-06-23T00:06:21.925Z,38.17
2019-06-23T00:09:16.386Z,37.85
2019-06-23T00:11:51.376Z,36.28
2019-06-23T00:14:28.411Z,36.93
2019-06-23T00:17:03.616Z,36.33
2019-06-23T00:19:38.779Z,37.05
2019-06-23T00:22:35.000Z,37.50
2019-06-23T00:25:29.479Z,36.85
2019-06-23T00:28:04.591Z,38.78
2019-06-23T00:30:42.063Z,36.63
2019-06-23T00:33:20.455Z,37.20
2019-06-23T00:36:21.907Z,36.90
2019-06-23T00:38:58.721Z,37.63
2019-06-23T00:41:35.862Z,37.08
2019-06-23T00:44:11.010Z,36.85
2019-06-23T00:46:46.098Z,39.67
2019-06-23T00:49:23.195Z,38.13
2019-06-23T00:52:02.476Z,36.33
2019-06-23T00:54:37.255Z,38.08
2019-06-23T00:57:12.338Z,38.33
2019-06-23T01:00:06.782Z,37.00
2019-06-23T01:02:47.260Z,34.95
2019-06-23T01:05:24.164Z,38.70
2019-06-23T01:10:56.147Z,37.30
2019-06-23T01:13:31.523Z,36.80
2019-06-23T01:16:07.532Z,37.95
2019-06-23T01:18:42.836Z,37.00
2019-06-23T01:21:20.832Z,38.33
2019-06-23T01:23:55.711Z,38.02
2019-06-23T01:26:53.232Z,38.05
2019-06-23T01:29:30.589Z,37.10
2019-06-23T01:32:05.803Z,37.53
2019-06-23T01:34:44.335Z,38.30
2019-06-23T01:37:19.643Z,37.13
2019-06-23T01:42:49.035Z,37.55
2019-06-23T01:45:24.237Z,37.13
2019-06-23T01:47:59.364Z,37.20
2019-06-23T01:50:36.205Z,37.00
2019-06-23T01:53:11.425Z,37.90
2019-06-23T02:02:02.437Z,38.67
2019-06-23T02:04:40.693Z,37.78
2019-06-23T02:07:21.192Z,38.63
2019-06-23T02:09:56.591Z,38.02
2019-06-23T02:12:38.073Z,39.18
2019-06-23T02:15:14.919Z,35.73
2019-06-23T02:17:49.795Z,35.40
2019-06-23T02:20:28.034Z,35.90
2019-06-23T02:23:04.652Z,35.65
2019-06-23T02:25:39.489Z,37.55
2019-06-23T02:28:15.288Z,36.17
2019-06-23T02:30:50.242Z,36.13
2019-06-23T02:33:44.631Z,37.17
2019-06-23T02:36:19.527Z,37.25
2019-06-23T02:38:54.427Z,36.28
2019-06-23T02:41:29.280Z,35.63
2019-06-23T02:44:04.397Z,35.78
2019-06-23T02:46:41.698Z,36.55
2019-06-23T02:49:20.173Z,35.75
2019-06-23T02:52:01.102Z,35.90
2019-06-23T02:54:43.154Z,35.78
2019-06-23T02:57:36.985Z,36.53
2019-06-23T03:00:15.495Z,36.20
2019-06-23T03:02:50.241Z,36.33
2019-06-23T03:05:25.126Z,36.07
2019-06-23T03:08:00.948Z,35.95
2019-06-23T03:10:35.855Z,37.50
2019-06-23T03:13:10.693Z,37.00
2019-06-23T03:15:45.484Z,36.65
2019-06-23T03:18:20.212Z,36.60
2019-06-23T03:20:55.015Z,35.43
2019-06-23T03:23:29.753Z,35.55
2019-06-23T03:26:14.463Z,35.55
2019-06-23T03:28:49.312Z,36.48
2019-06-23T03:31:25.031Z,36.03
2019-06-23T03:33:59.909Z,35.63
2019-06-23T03:36:35.369Z,35.25
2019-06-23T03:39:10.213Z,35.88
2019-06-23T03:41:45.653Z,35.73
2019-06-23T03:44:21.137Z,35.75
2019-06-23T03:46:55.984Z,35.65
2019-06-23T03:49:30.799Z,35.85
2019-06-23T03:52:05.682Z,36.83
2019-06-23T03:54:40.428Z,35.90
2019-06-23T03:57:15.331Z,36.25
2019-06-23T03:59:50.048Z,36.80
2019-06-23T04:02:24.788Z,37.03
2019-06-23T04:04:59.583Z,37.00
2019-06-23T04:07:34.409Z,37.38
2019-06-23T04:10:09.867Z,37.53
2019-06-23T04:12:44.684Z,37.90
2019-06-23T04:15:19.529Z,36.87
2019-06-23T04:17:54.271Z,38.38
2019-06-23T04:20:32.128Z,38.17
2019-06-23T04:23:06.936Z,38.35
2019-06-23T04:25:41.778Z,37.78
2019-06-23T04:28:16.532Z,37.90
2019-06-23T04:30:55.992Z,38.13
2019-06-23T04:33:30.724Z,38.33
2019-06-23T04:36:08.107Z,38.00
2019-06-23T04:38:41.928Z,37.93
2019-06-23T04:41:16.668Z,38.90
2019-06-23T04:43:51.387Z,38.30
2019-06-23T04:46:26.139Z,37.85
2019-06-23T04:49:00.954Z,37.80
2019-06-23T04:51:35.670Z,38.28
2019-06-23T04:54:10.448Z,37.42
2019-06-23T04:56:45.255Z,37.75
2019-06-23T04:59:20.021Z,36.70
2019-06-23T05:01:54.740Z,36.98
2019-06-23T05:04:29.503Z,38.58
2019-06-23T05:07:04.301Z,37.75
2019-06-23T05:09:39.076Z,37.63
2019-06-23T05:12:13.869Z,38.25
2019-06-23T05:14:48.661Z,38.35
2019-06-23T05:17:23.567Z,37.63
2019-06-23T05:19:58.316Z,38.23
2019-06-23T05:22:33.051Z,37.30
2019-06-23T05:25:08.040Z,37.35
2019-06-23T05:27:42.779Z,38.15
2019-06-23T05:30:18.008Z,38.40
2019-06-23T05:32:52.837Z,39.00
2019-06-23T05:35:27.552Z,38.17
2019-06-23T05:38:02.303Z,38.23
2019-06-23T05:40:37.032Z,39.58
2019-06-23T05:43:11.767Z,39.63
2019-06-23T05:45:46.508Z,39.13
2019-06-23T05:48:21.396Z,38.92
2019-06-23T05:50:56.149Z,39.20
2019-06-23T05:53:30.892Z,40.30
2019-06-23T05:56:05.691Z,40.38
2019-06-23T05:58:46.394Z,39.00
2019-06-23T06:01:16.984Z,38.78
2019-06-23T06:03:51.745Z,39.75
2019-06-23T06:06:26.558Z,39.65
2019-06-23T06:09:01.303Z,39.35
2019-06-23T06:11:36.377Z,39.83
2019-06-23T06:14:11.205Z,39.83
2019-06-23T06:16:46.021Z,40.20
2019-06-23T06:19:20.749Z,40.50
2019-06-23T06:21:55.592Z,41.65
2019-06-23T06:24:30.320Z,41.75
2019-06-23T06:27:09.070Z,42.65
2019-06-23T06:29:42.576Z,42.10
2019-06-23T06:32:17.466Z,41.68
2019-06-23T06:34:52.253Z,42.62
2019-06-23T06:37:27.009Z,43.02
2019-06-23T06:40:01.820Z,42.48
2019-06-23T06:42:36.655Z,43.73
2019-06-23T06:45:14.472Z,42.93
2019-06-23T06:47:49.217Z,43.23
2019-06-23T06:50:24.005Z,43.27
2019-06-23T06:52:58.826Z,42.78
2019-06-23T06:55:33.631Z,42.40
2019-06-23T06:58:08.379Z,44.40
2019-06-23T07:00:43.210Z,42.85
2019-06-23T07:03:18.987Z,43.30
2019-06-23T07:05:53.719Z,43.42
2019-06-23T07:08:28.451Z,41.80
2019-06-23T07:11:03.187Z,42.03
2019-06-23T07:13:37.932Z,40.48
2019-06-23T07:16:12.699Z,40.95
2019-06-23T07:18:47.436Z,41.13
2019-06-23T07:21:22.179Z,41.77
2019-06-23T07:23:56.988Z,42.80
2019-06-23T07:26:31.726Z,41.80
2019-06-23T07:29:06.501Z,41.30
2019-06-23T07:31:58.906Z,40.63
2019-06-23T07:34:33.661Z,41.13
2019-06-23T07:37:08.471Z,41.73
2019-06-23T07:39:43.213Z,40.55
2019-06-23T07:42:17.955Z,41.02
2019-06-23T07:44:53.755Z,41.05
2019-06-23T07:47:28.625Z,41.10
2019-06-23T07:50:03.652Z,41.33
2019-06-23T07:52:38.371Z,41.58
2019-06-23T07:55:13.194Z,41.75
2019-06-23T07:58:07.138Z,41.88
2019-06-23T08:00:42.046Z,42.08
2019-06-23T08:03:16.837Z,41.75
2019-06-23T08:05:51.608Z,40.92
2019-06-23T08:08:26.333Z,41.73
2019-06-23T08:11:01.162Z,42.43
2019-06-23T08:13:35.892Z,41.48
2019-06-23T08:16:10.703Z,41.63
2019-06-23T08:18:45.457Z,41.45
2019-06-23T08:21:20.294Z,40.90
2019-06-23T08:23:55.048Z,41.18
2019-06-23T08:26:29.984Z,41.30
2019-06-23T08:29:04.939Z,41.85
2019-06-23T08:31:39.677Z,42.33
2019-06-23T08:34:14.491Z,41.18
2019-06-23T08:36:49.415Z,43.42
2019-06-23T08:39:24.246Z,42.30
2019-06-23T08:41:59.127Z,42.60
2019-06-23T08:44:35.152Z,42.45
2019-06-23T08:47:09.878Z,42.90
2019-06-23T08:49:44.623Z,41.95
2019-06-23T08:52:19.390Z,42.17
2019-06-23T08:54:54.142Z,43.30
2019-06-23T08:57:28.884Z,42.90
2019-06-23T09:00:04.231Z,42.08
2019-06-23T09:02:38.949Z,42.88
2019-06-23T09:05:13.788Z,41.97
2019-06-23T09:07:48.533Z,42.45
2019-06-23T09:10:23.404Z,43.13
2019-06-23T09:12:58.226Z,42.93
2019-06-23T09:15:32.968Z,42.13
2019-06-23T09:18:07.885Z,43.63
2019-06-23T09:20:42.645Z,43.40
2019-06-23T09:23:17.480Z,44.65
2019-06-23T09:25:52.348Z,44.25
2019-06-23T09:28:27.212Z,42.83
2019-06-23T09:31:01.959Z,43.85
2019-06-23T09:33:36.788Z,42.30
2019-06-23T09:36:11.652Z,42.27
2019-06-23T09:41:52.616Z,45.92
2019-06-23T09:44:27.918Z,44.83
2019-06-23T09:47:05.899Z,48.45
2019-06-23T09:49:42.149Z,45.70
2019-06-23T09:52:22.520Z,45.43
2019-06-23T09:55:21.223Z,44.93
2019-06-23T09:58:03.136Z,43.73
2019-06-23T10:00:39.314Z,43.68
2019-06-23T10:03:14.926Z,45.30
2019-06-23T10:05:56.649Z,46.13
2019-06-23T10:09:03.790Z,46.23
2019-06-23T10:11:29.824Z,45.58
2019-06-23T10:14:07.770Z,45.78
2019-06-23T10:17:01.932Z,46.70
2019-06-23T10:19:39.966Z,45.73
2019-06-23T10:22:15.402Z,43.17
2019-06-23T10:24:52.133Z,47.05
2019-06-23T10:27:35.462Z,44.77
2019-06-23T10:30:12.963Z,46.47
2019-06-23T10:33:07.207Z,44.90
2019-06-23T10:35:48.235Z,42.83
2019-06-23T10:38:27.352Z,45.33
2019-06-23T10:41:09.526Z,45.05
2019-06-23T10:43:44.700Z,43.50
2019-06-23T10:46:21.354Z,43.68
2019-06-23T10:48:57.989Z,43.98
2019-06-23T10:51:34.018Z,44.42
2019-06-23T10:54:28.335Z,43.58
2019-06-23T10:57:02.389Z,40.83
2019-06-23T10:59:40.090Z,41.73
2019-06-23T11:02:34.301Z,42.88
2019-06-23T11:05:09.492Z,40.45
2019-06-23T11:07:45.428Z,39.53
2019-06-23T11:10:20.335Z,39.88
2019-06-23T11:12:55.076Z,39.50
2019-06-23T11:15:29.871Z,39.18
2019-06-23T11:18:04.675Z,39.70
2019-06-23T11:20:39.409Z,39.05
2019-06-23T11:23:14.443Z,38.53
2019-06-23T11:25:49.179Z,38.08
2019-06-23T11:28:24.191Z,39.05
2019-06-23T11:30:58.926Z,38.33
2019-06-23T11:33:33.732Z,37.90
2019-06-23T11:36:08.508Z,38.67
2019-06-23T11:38:43.320Z,37.40
2019-06-23T11:41:18.079Z,38.53
2019-06-23T11:43:52.822Z,37.93
2019-06-23T11:46:27.561Z,38.90
2019-06-23T11:49:02.617Z,38.10
2019-06-23T11:51:37.339Z,38.50
2019-06-23T11:54:14.710Z,38.08
2019-06-23T11:56:52.058Z,38.10
2019-06-23T11:59:26.860Z,37.33
2019-06-23T12:02:01.709Z,37.40
2019-06-23T12:04:56.871Z,37.88
2019-06-23T12:07:31.646Z,36.77
2019-06-23T12:10:08.123Z,37.08
2019-06-23T12:12:43.052Z,37.60
2019-06-23T12:15:18.843Z,37.43
2019-06-23T12:17:53.601Z,37.83
2019-06-23T12:20:28.327Z,37.10
2019-06-23T12:23:03.138Z,37.38
2019-06-23T12:25:37.860Z,37.53
2019-06-23T12:28:12.606Z,37.53
2019-06-23T12:31:06.823Z,38.63
2019-06-23T12:33:41.958Z,39.08
2019-06-23T12:36:18.840Z,37.90
2019-06-23T12:38:53.668Z,37.08
2019-06-23T12:41:28.591Z,37.23
2019-06-23T12:44:03.425Z,36.80
2019-06-23T12:46:38.584Z,36.88
2019-06-23T12:49:13.463Z,36.65
2019-06-23T12:51:49.180Z,36.93
2019-06-23T12:54:23.928Z,36.63
2019-06-23T12:56:58.658Z,37.58
2019-06-23T12:59:33.402Z,36.85
2019-06-23T13:02:09.097Z,37.58
2019-06-23T13:04:43.838Z,37.13
2019-06-23T13:07:18.567Z,37.67
2019-06-23T13:09:53.349Z,36.98
2019-06-23T13:12:28.191Z,37.50
2019-06-23T13:15:03.004Z,37.25
2019-06-23T13:17:37.881Z,37.40
2019-06-23T13:20:13.974Z,37.23
2019-06-23T13:22:48.844Z,37.23
2019-06-23T13:25:23.567Z,37.33
2019-06-23T13:27:58.353Z,37.45
2019-06-23T13:30:33.131Z,37.13
2019-06-23T13:33:07.969Z,37.23
2019-06-23T13:35:42.693Z,43.05
2019-06-23T13:38:17.615Z,38.55
2019-06-23T13:40:56.287Z,38.78
2019-06-23T13:43:28.809Z,37.17
2019-06-23T13:46:03.629Z,37.33
2019-06-23T13:48:38.365Z,37.08
2019-06-23T13:51:13.105Z,37.80
2019-06-23T13:53:48.399Z,37.42
2019-06-23T13:56:23.468Z,37.20
2019-06-23T13:58:58.284Z,47.15
2019-06-23T14:01:33.982Z,43.20
2019-06-23T14:04:08.785Z,37.80
2019-06-23T14:06:43.709Z,37.05
2019-06-23T14:09:18.524Z,36.95
2019-06-23T14:11:53.394Z,37.25
2019-06-23T14:14:28.214Z,37.10
2019-06-23T14:17:03.004Z,37.17
2019-06-23T14:19:37.785Z,37.13
2019-06-23T14:22:12.520Z,37.83
2019-06-23T14:24:47.256Z,37.75
2019-06-23T14:27:22.178Z,36.95
2019-06-23T14:29:56.976Z,36.85
2019-06-23T14:32:31.772Z,37.48
2019-06-23T14:35:07.838Z,37.35
2019-06-23T14:37:42.646Z,37.17
2019-06-23T14:40:17.631Z,37.35
2019-06-23T14:42:52.633Z,37.35
2019-06-23T14:45:27.488Z,37.33
2019-06-23T14:48:02.349Z,37.10
2019-06-23T14:50:37.243Z,37.28
2019-06-23T14:53:12.077Z,37.45
2019-06-23T14:55:46.828Z,37.88
2019-06-23T14:58:21.657Z,37.70
2019-06-23T15:00:56.375Z,37.53
2019-06-23T15:03:31.212Z,37.40
2019-06-23T15:06:06.029Z,37.95
2019-06-23T15:08:40.829Z,37.70
2019-06-23T15:11:15.592Z,37.38
2019-06-23T15:13:50.420Z,37.17
2019-06-23T15:16:25.161Z,37.20
2019-06-23T15:18:59.915Z,37.35
2019-06-23T15:21:34.657Z,37.48
2019-06-23T15:24:12.468Z,37.85
2019-06-23T15:26:47.360Z,37.15
2019-06-23T15:29:22.354Z,37.60
2019-06-23T15:31:57.112Z,37.42
2019-06-23T15:34:31.931Z,38.00
2019-06-23T15:37:06.723Z,37.85
2019-06-23T15:39:41.694Z,37.55
2019-06-23T15:42:16.488Z,37.33
2019-06-23T15:44:51.231Z,37.53
2019-06-23T15:47:25.965Z,37.65
2019-06-23T15:50:00.838Z,37.67
2019-06-23T15:52:35.713Z,37.95
2019-06-23T15:55:10.804Z,38.05
2019-06-23T15:57:45.528Z,38.08
2019-06-23T16:00:20.746Z,37.73
2019-06-23T16:02:55.477Z,37.95
2019-06-23T16:05:30.220Z,37.85
2019-06-23T16:08:05.114Z,38.08
2019-06-23T16:10:40.037Z,38.78
2019-06-23T16:13:14.828Z,38.25
2019-06-23T16:15:49.571Z,38.42
2019-06-23T16:18:24.312Z,38.08
2019-06-23T16:20:59.112Z,37.93
2019-06-23T16:23:33.929Z,37.83
2019-06-23T16:26:08.811Z,38.33
2019-06-23T16:28:43.554Z,38.35
2019-06-23T16:31:18.595Z,38.15
2019-06-23T16:33:53.316Z,37.98
2019-06-23T16:36:28.060Z,38.42
2019-06-23T16:39:02.806Z,38.05
2019-06-23T16:41:38.206Z,38.42
2019-06-23T16:44:12.984Z,38.33
2019-06-23T16:46:47.725Z,38.53
2019-06-23T16:49:22.451Z,38.45
2019-06-23T16:51:57.220Z,38.15
2019-06-23T16:54:32.016Z,37.93
2019-06-23T16:57:06.758Z,38.23
2019-06-23T16:59:41.488Z,37.73
2019-06-23T17:02:16.320Z,37.73
2019-06-23T17:04:51.133Z,38.40
2019-06-23T17:07:25.887Z,38.00
2019-06-23T17:10:00.656Z,38.33
2019-06-23T17:12:48.572Z,37.70
2019-06-23T17:15:13.791Z,38.57
2019-06-23T17:17:48.644Z,38.05
2019-06-23T17:20:23.364Z,38.03
2019-06-23T17:22:58.189Z,40.70
2019-06-23T17:25:32.914Z,38.80
2019-06-23T17:28:07.655Z,38.60
2019-06-23T17:31:01.629Z,38.53
2019-06-23T17:33:36.364Z,38.60
2019-06-23T17:36:11.188Z,38.50
2019-06-23T17:38:45.995Z,38.53
2019-06-23T17:41:20.845Z,38.78
2019-06-23T17:43:56.664Z,39.80
2019-06-23T17:46:31.513Z,39.63
2019-06-23T17:49:06.332Z,39.05
2019-06-23T17:51:41.163Z,38.85
2019-06-23T17:54:15.899Z,38.98
2019-06-23T17:56:50.822Z,38.95
2019-06-23T17:59:25.551Z,38.70
2019-06-23T18:02:00.368Z,39.33
2019-06-23T18:04:35.103Z,39.33
2019-06-23T18:07:09.836Z,38.85
2019-06-23T18:09:44.623Z,38.90
2019-06-23T18:12:30.933Z,39.50
2019-06-23T18:15:06.580Z,39.00
2019-06-23T18:17:41.388Z,39.18
2019-06-23T18:20:17.386Z,39.05
2019-06-23T18:22:53.273Z,39.33
2019-06-23T18:25:28.105Z,38.83
2019-06-23T18:28:02.886Z,38.95
2019-06-23T18:30:37.864Z,39.42
2019-06-23T18:33:13.629Z,39.53
2019-06-23T18:35:48.502Z,39.10
2019-06-23T18:38:42.910Z,41.68
2019-06-23T18:41:38.760Z,40.15
2019-06-23T18:44:33.516Z,41.33
2019-06-23T18:47:08.570Z,41.90
2019-06-23T18:49:43.505Z,39.65
2019-06-23T18:52:21.948Z,39.70
2019-06-23T18:54:58.751Z,41.35
2019-06-23T18:57:33.552Z,42.05
2019-06-23T19:00:10.592Z,40.95
2019-06-23T19:03:09.597Z,39.40
2019-06-23T19:05:45.024Z,41.33
2019-06-23T19:08:20.234Z,41.58
2019-06-23T19:10:58.159Z,41.00
2019-06-23T19:13:52.318Z,39.83
2019-06-23T19:16:19.254Z,40.33
2019-06-23T19:19:13.831Z,41.35
2019-06-23T19:21:50.409Z,40.63
2019-06-23T19:24:46.755Z,39.38
2019-06-23T19:27:22.780Z,39.95
2019-06-23T19:29:57.689Z,39.60
2019-06-23T19:32:32.587Z,40.30
2019-06-23T19:35:08.788Z,40.30
2019-06-23T19:37:43.776Z,39.63
2019-06-23T19:40:20.226Z,39.83
2019-06-23T19:42:54.965Z,39.78
2019-06-23T19:45:29.764Z,39.23
2019-06-23T19:48:04.659Z,39.90
2019-06-23T19:50:39.456Z,40.40
2019-06-23T19:53:14.271Z,39.48
2019-06-23T19:55:49.159Z,39.88
2019-06-23T19:58:23.893Z,39.63
2019-06-23T20:00:58.643Z,39.55
2019-06-23T20:03:33.380Z,39.25
2019-06-23T20:06:09.185Z,39.38
2019-06-23T20:08:43.931Z,39.55
2019-06-23T20:11:18.747Z,39.58
2019-06-23T20:13:53.562Z,40.00
2019-06-23T20:16:28.300Z,39.45
2019-06-23T20:19:03.240Z,40.08
2019-06-23T20:21:38.132Z,40.50
2019-06-23T20:24:12.902Z,40.43
2019-06-23T20:26:47.700Z,39.95
2019-06-23T20:29:22.588Z,39.75
2019-06-23T20:31:58.200Z,39.92
2019-06-23T20:34:33.019Z,39.63
2019-06-23T20:37:07.885Z,40.45
2019-06-23T20:39:42.764Z,40.08
2019-06-23T20:42:17.495Z,39.95
2019-06-23T20:44:52.405Z,39.85
2019-06-23T20:47:27.134Z,40.08
2019-06-23T20:50:01.903Z,39.78
2019-06-23T20:52:36.811Z,39.85
2019-06-23T20:55:14.705Z,41.80
2019-06-23T20:57:49.504Z,39.85
2019-06-23T21:00:24.693Z,40.12
2019-06-23T21:02:59.516Z,39.53
2019-06-23T21:05:37.499Z,39.88
2019-06-23T21:08:10.768Z,39.75
2019-06-23T21:10:45.513Z,40.20
2019-06-23T21:13:20.236Z,40.58
2019-06-23T21:15:55.037Z,40.08
2019-06-23T21:18:29.864Z,39.88
2019-06-23T21:21:04.762Z,40.83
2019-06-23T21:23:39.505Z,40.35
2019-06-23T21:26:14.217Z,40.35
2019-06-23T21:28:49.007Z,40.03
2019-06-23T21:31:23.832Z,40.50
2019-06-23T21:33:58.599Z,39.90
2019-06-23T21:36:33.474Z,39.98
2019-06-23T21:39:09.279Z,41.02
2019-06-23T21:41:44.171Z,40.23
2019-06-23T21:44:18.923Z,40.15
2019-06-23T21:46:53.648Z,40.35
2019-06-23T21:49:28.448Z,40.12
2019-06-23T21:52:03.276Z,41.65
2019-06-23T21:54:38.009Z,40.15
2019-06-23T21:57:12.753Z,40.50
2019-06-23T21:59:47.493Z,40.08
2019-06-23T22:02:22.280Z,39.73
2019-06-23T22:04:57.106Z,39.90
2019-06-23T22:07:31.840Z,40.25
2019-06-23T22:10:06.872Z,39.98
2019-06-23T22:12:41.595Z,39.98
2019-06-23T22:15:30.609Z,40.60
2019-06-23T22:17:52.912Z,40.33
2019-06-23T22:20:27.642Z,40.65
2019-06-23T22:23:02.585Z,40.38
2019-06-23T22:25:37.409Z,40.00
2019-06-23T22:28:12.205Z,39.98
2019-06-23T22:30:46.956Z,40.03
2019-06-23T22:33:21.704Z,40.15
2019-06-23T22:35:56.433Z,40.03
2019-06-23T22:38:31.154Z,40.05
2019-06-23T22:41:05.964Z,40.33
2019-06-23T22:43:40.693Z,40.33
2019-06-23T22:46:15.432Z,40.35
2019-06-23T22:48:50.239Z,40.28
2019-06-23T22:51:25.057Z,39.50
2019-06-23T22:53:59.880Z,40.40
2019-06-23T22:56:47.099Z,40.03
2019-06-23T22:59:21.840Z,41.30
2019-06-23T23:01:56.608Z,40.58
2019-06-23T23:04:31.487Z,40.70
2019-06-23T23:07:06.248Z,41.20
2019-06-23T23:09:42.011Z,41.45
2019-06-23T23:12:16.740Z,40.55
2019-06-23T23:14:51.533Z,39.63
2019-06-23T23:17:26.267Z,39.42
2019-06-23T23:20:01.082Z,39.35
2019-06-23T23:22:36.883Z,39.58
2019-06-23T23:25:11.771Z,40.07
2019-06-23T23:27:46.519Z,39.78
2019-06-23T23:30:21.388Z,40.92
2019-06-23T23:32:56.129Z,39.48
2019-06-23T23:35:30.854Z,40.40
2019-06-23T23:38:05.597Z,39.70
2019-06-23T23:40:40.362Z,40.10
2019-06-23T23:43:15.076Z,40.38
2019-06-23T23:45:50.855Z,39.55
2019-06-23T23:48:25.611Z,39.27
2019-06-23T23:51:00.364Z,39.85
2019-06-23T23:53:35.219Z,39.65
2019-06-23T23:56:10.108Z,39.67
2019-06-23T23:58:44.837Z,39.73
